createdAt,value
2018-06-15T00:03:24.018Z,88.40
2018-06-15T00:06:48.671Z,87.10
2018-06-15T00:10:13.370Z,88.30
2018-06-15T00:13:38.028Z,87.60
2018-06-15T00:17:02.662Z,87.50
2018-06-15T00:20:27.356Z,87.90
2018-06-15T00:23:51.986Z,88.30
2018-06-15T00:27:16.650Z,89.30
2018-06-15T00:30:41.276Z,89.80
2018-06-15T00:34:05.924Z,89.80
2018-06-15T00:37:30.609Z,90.60
2018-06-15T00:40:55.272Z,89.70
2018-06-15T00:44:19.926Z,89.80
2018-06-15T00:47:44.602Z,90.10
2018-06-15T00:51:09.294Z,90.20
2018-06-15T00:54:33.886Z,90.50
2018-06-15T00:57:58.595Z,90.30
2018-06-15T01:01:23.292Z,90.50
2018-06-15T01:04:47.938Z,90.70
2018-06-15T01:08:12.572Z,90.20
2018-06-15T01:11:37.740Z,90.20
2018-06-15T01:15:02.370Z,90.50
2018-06-15T01:18:27.442Z,91.20
2018-06-15T01:21:52.165Z,90.60
2018-06-15T01:25:16.798Z,90.20
2018-06-15T01:28:41.439Z,90.50
2018-06-15T01:32:07.104Z,90.70
2018-06-15T01:35:31.805Z,90.50
2018-06-15T01:45:45.409Z,90.80
2018-06-15T01:52:34.376Z,90.80
2018-06-15T01:59:23.324Z,90.80
2018-06-15T02:02:47.981Z,90.80
2018-06-15T02:09:37.132Z,91.20
2018-06-15T02:13:01.781Z,91.10
2018-06-15T02:16:26.612Z,91.20
2018-06-15T02:19:51.284Z,91.30
2018-06-15T02:23:16.005Z,91.70
2018-06-15T02:26:40.751Z,91.90
2018-06-15T02:30:05.677Z,92.20
2018-06-15T02:33:30.402Z,92.40
2018-06-15T02:36:55.078Z,92.50
2018-06-15T02:40:19.746Z,92.20
2018-06-15T02:43:44.422Z,92.40
2018-06-15T02:47:09.063Z,92.20
2018-06-15T02:50:33.728Z,92.10
2018-06-15T02:53:58.358Z,92.60
2018-06-15T02:57:22.982Z,92.60
2018-06-15T03:00:47.651Z,92.60
2018-06-15T03:04:12.388Z,92.60
2018-06-15T03:07:37.169Z,92.70
2018-06-15T03:11:01.747Z,93.20
2018-06-15T03:14:26.392Z,92.80
2018-06-15T03:17:51.027Z,93.10
2018-06-15T03:21:15.616Z,93.20
2018-06-15T03:24:40.364Z,93.20
2018-06-15T03:28:05.131Z,92.70
2018-06-15T03:31:29.839Z,93.20
2018-06-15T03:34:54.449Z,93.00
2018-06-15T03:38:19.108Z,92.70
2018-06-15T03:41:43.698Z,93.00
2018-06-15T03:45:08.317Z,92.70
2018-06-15T03:48:32.964Z,92.60
2018-06-15T03:51:57.586Z,93.00
2018-06-15T03:55:22.243Z,93.00
2018-06-15T03:58:46.893Z,93.00
2018-06-15T04:02:11.615Z,92.80
2018-06-15T04:05:36.333Z,92.90
2018-06-15T04:09:01.073Z,93.20
2018-06-15T04:12:25.745Z,92.80
2018-06-15T04:15:50.379Z,93.30
2018-06-15T04:19:15.035Z,92.90
2018-06-15T04:22:39.696Z,92.50
2018-06-15T04:26:04.391Z,92.10
2018-06-15T04:29:29.101Z,91.90
2018-06-15T04:32:53.889Z,92.40
2018-06-15T04:36:18.648Z,92.10
2018-06-15T04:43:07.682Z,91.90
2018-06-15T04:46:32.448Z,91.50
2018-06-15T04:49:57.045Z,91.10
2018-06-15T04:53:21.708Z,91.10
2018-06-15T04:56:46.349Z,91.20
2018-06-15T05:00:11.025Z,90.70
2018-06-15T05:03:35.675Z,90.80
2018-06-15T05:10:25.197Z,90.60
2018-06-15T05:13:49.998Z,90.60
2018-06-15T05:17:14.881Z,90.80
2018-06-15T05:20:39.900Z,90.30
2018-06-15T05:24:04.675Z,89.40
2018-06-15T05:27:29.452Z,89.10
2018-06-15T05:30:54.222Z,86.90
2018-06-15T05:34:18.966Z,86.00
2018-06-15T05:37:43.649Z,86.10
2018-06-15T05:41:08.450Z,85.20
2018-06-15T05:44:33.149Z,85.00
2018-06-15T05:47:57.855Z,83.60
2018-06-15T05:51:22.673Z,82.50
2018-06-15T05:58:11.794Z,82.90
2018-06-15T06:01:36.456Z,83.40
2018-06-15T06:05:01.169Z,83.20
2018-06-15T06:08:25.977Z,82.40
2018-06-15T06:11:50.760Z,83.50
2018-06-15T06:15:15.503Z,82.90
2018-06-15T06:18:40.198Z,82.10
2018-06-15T06:22:04.964Z,82.10
2018-06-15T06:25:29.850Z,81.20
2018-06-15T06:28:54.526Z,81.10
2018-06-15T06:32:19.272Z,80.40
2018-06-15T06:35:44.125Z,80.60
2018-06-15T06:42:35.369Z,79.30
2018-06-15T06:46:00.060Z,78.80
2018-06-15T06:49:24.783Z,79.80
2018-06-15T06:52:49.516Z,78.40
2018-06-15T06:59:38.623Z,77.40
2018-06-15T07:03:03.303Z,77.20
2018-06-15T07:06:28.028Z,77.30
2018-06-15T07:09:52.689Z,76.10
2018-06-15T07:13:17.393Z,76.90
2018-06-15T07:16:42.012Z,75.90
2018-06-15T07:20:06.702Z,76.80
2018-06-15T07:23:31.512Z,76.30
2018-06-15T07:26:56.121Z,76.60
2018-06-15T07:30:20.768Z,76.60
2018-06-15T07:33:45.543Z,77.00
2018-06-15T07:37:10.284Z,76.20
2018-06-15T07:40:34.924Z,76.40
2018-06-15T07:43:59.647Z,77.10
2018-06-15T07:47:24.448Z,75.50
2018-06-15T07:50:50.120Z,74.30
2018-06-15T07:54:14.975Z,73.60
2018-06-15T07:57:39.646Z,74.30
2018-06-15T08:01:04.332Z,72.00
2018-06-15T08:11:17.820Z,73.00
2018-06-15T08:14:42.653Z,71.40
2018-06-15T08:18:07.420Z,71.40
2018-06-15T08:24:56.520Z,70.30
2018-06-15T08:28:21.247Z,72.40
2018-06-15T08:31:46.007Z,72.30
2018-06-15T08:35:10.677Z,73.20
2018-06-15T08:38:35.319Z,71.60
2018-06-15T08:45:24.478Z,70.50
2018-06-15T08:48:49.177Z,70.00
2018-06-15T08:52:13.884Z,70.50
2018-06-15T08:55:38.519Z,69.90
2018-06-15T08:59:03.482Z,69.90
2018-06-15T09:09:17.140Z,70.10
2018-06-15T09:12:41.968Z,70.40
2018-06-15T09:16:06.729Z,71.20
2018-06-15T09:19:31.418Z,69.20
2018-06-15T09:22:56.172Z,65.70
2018-06-15T09:26:20.910Z,63.60
2018-06-15T09:29:45.618Z,62.70
2018-06-15T09:33:10.462Z,62.60
2018-06-15T09:36:35.179Z,61.50
2018-06-15T09:39:59.956Z,62.70
2018-06-15T09:43:24.812Z,62.90
2018-06-15T09:46:49.646Z,60.20
2018-06-15T09:50:14.321Z,59.70
2018-06-15T09:53:39.025Z,60.30
2018-06-15T09:57:03.835Z,58.40
2018-06-15T10:00:33.847Z,57.70
2018-06-15T10:03:58.565Z,57.60
2018-06-15T10:07:23.217Z,56.30
2018-06-15T10:10:47.907Z,56.60
2018-06-15T10:14:12.611Z,55.90
2018-06-15T10:21:01.786Z,55.10
2018-06-15T10:24:26.565Z,55.50
2018-06-15T10:27:52.350Z,57.30
2018-06-15T10:31:17.758Z,57.40
2018-06-15T10:34:43.872Z,56.10
2018-06-15T10:38:08.881Z,56.30
2018-06-15T10:41:33.648Z,56.70
2018-06-15T10:44:59.418Z,54.90
2018-06-15T10:48:24.328Z,54.30
2018-06-15T10:51:49.244Z,54.70
2018-06-15T10:55:14.237Z,54.80
2018-06-15T10:58:39.660Z,55.20
2018-06-15T11:02:04.462Z,56.20
2018-06-15T11:05:29.321Z,53.80
2018-06-15T11:08:54.906Z,54.30
2018-06-15T11:15:47.132Z,51.30
2018-06-15T11:19:13.942Z,50.10
2018-06-15T11:22:38.932Z,50.70
2018-06-15T11:26:05.891Z,51.00
2018-06-15T11:29:32.117Z,51.50
2018-06-15T11:32:56.974Z,48.20
2018-06-15T11:36:22.975Z,48.10
2018-06-15T11:39:48.463Z,48.50
2018-06-15T11:43:13.939Z,47.30
2018-06-15T11:46:38.775Z,48.70
2018-06-15T11:58:02.707Z,45.30
2018-06-15T12:01:27.628Z,45.00
2018-06-15T12:04:52.507Z,44.40
2018-06-15T12:08:17.468Z,45.50
2018-06-15T12:11:42.441Z,46.30
2018-06-15T12:15:07.469Z,45.40
2018-06-15T12:18:33.049Z,45.50
2018-06-15T12:21:58.101Z,48.00
2018-06-15T12:25:23.396Z,48.90
2018-06-15T12:28:48.170Z,49.30
2018-06-15T12:32:12.871Z,49.70
2018-06-15T12:35:37.709Z,50.00
2018-06-15T12:39:02.440Z,49.80
2018-06-15T12:42:27.176Z,47.60
2018-06-15T12:45:52.088Z,48.50
2018-06-15T12:49:16.751Z,48.70
2018-06-15T12:52:41.580Z,48.10
2018-06-15T12:56:06.290Z,48.40
2018-06-15T12:59:31.150Z,48.00
2018-06-15T13:02:55.846Z,47.60
2018-06-15T13:06:20.626Z,47.20
2018-06-15T13:09:45.269Z,46.00
2018-06-15T13:13:10.024Z,45.00
2018-06-15T13:16:35.044Z,43.80
2018-06-15T13:19:59.705Z,44.30
2018-06-15T13:23:24.466Z,43.70
2018-06-15T13:26:50.225Z,43.20
2018-06-15T13:30:15.568Z,43.80
2018-06-15T13:33:40.253Z,42.50
2018-06-15T13:37:05.414Z,43.00
2018-06-15T13:40:30.195Z,43.80
2018-06-15T13:43:55.018Z,43.20
2018-06-15T13:47:19.852Z,43.60
2018-06-15T13:50:44.882Z,43.00
2018-06-15T13:54:09.583Z,43.10
2018-06-15T13:57:34.243Z,43.10
2018-06-15T14:00:58.879Z,41.60
2018-06-15T14:07:47.961Z,42.40
2018-06-15T14:11:12.595Z,42.90
2018-06-15T14:14:37.305Z,43.00
2018-06-15T14:18:02.311Z,40.60
2018-06-15T14:21:26.989Z,40.10
2018-06-15T14:24:51.610Z,37.50
2018-06-15T14:28:16.282Z,37.30
2018-06-15T14:35:05.597Z,37.50
2018-06-15T14:38:30.368Z,38.00
2018-06-15T14:45:19.446Z,37.60
2018-06-15T14:48:44.141Z,37.70
2018-06-15T14:55:33.270Z,35.20
2018-06-15T14:58:57.949Z,36.50
2018-06-15T15:02:22.674Z,37.30
2018-06-15T15:05:47.379Z,37.60
2018-06-15T15:12:36.510Z,36.30
2018-06-15T15:16:01.218Z,36.40
2018-06-15T15:22:50.259Z,35.90
2018-06-15T15:26:15.092Z,35.20
2018-06-15T15:29:39.773Z,35.00
2018-06-15T15:33:04.525Z,34.10
2018-06-15T15:36:29.343Z,33.50
2018-06-15T15:43:18.630Z,33.00
2018-06-15T15:50:07.711Z,33.30
2018-06-15T15:53:32.380Z,31.70
2018-06-15T15:56:57.111Z,32.10
2018-06-15T16:03:46.395Z,32.10
2018-06-15T16:07:11.013Z,32.30
2018-06-15T16:10:35.743Z,32.60
2018-06-15T16:14:00.523Z,33.40
2018-06-15T16:17:25.431Z,33.60
2018-06-15T16:20:50.160Z,33.00
2018-06-15T16:24:14.866Z,32.60
2018-06-15T16:27:39.619Z,31.80
2018-06-15T16:31:04.369Z,31.90
2018-06-15T16:34:29.087Z,31.70
2018-06-15T16:37:53.978Z,31.10
2018-06-15T16:41:18.773Z,31.40
2018-06-15T16:48:07.934Z,33.40
2018-06-15T16:51:32.591Z,33.00
2018-06-15T16:58:21.567Z,32.10
2018-06-15T17:01:46.213Z,31.80
2018-06-15T17:05:11.029Z,31.30
2018-06-15T17:08:35.669Z,31.00
2018-06-15T17:12:00.369Z,30.30
2018-06-15T17:15:25.105Z,31.00
2018-06-15T17:18:49.753Z,32.00
2018-06-15T17:25:38.790Z,31.60
2018-06-15T17:32:27.844Z,31.20
2018-06-15T17:35:52.522Z,31.10
2018-06-15T17:39:17.159Z,31.00
2018-06-15T17:42:41.816Z,30.30
2018-06-15T17:46:06.654Z,29.60
2018-06-15T17:49:31.504Z,30.70
2018-06-15T17:56:20.615Z,31.70
2018-06-15T17:59:45.294Z,31.80
2018-06-15T18:03:10.286Z,33.30
2018-06-15T18:06:34.938Z,33.00
2018-06-15T18:09:59.789Z,32.90
2018-06-15T18:13:24.489Z,32.60
2018-06-15T18:16:49.376Z,33.10
2018-06-15T18:20:14.054Z,33.50
2018-06-15T18:23:38.857Z,33.30
2018-06-15T18:27:03.610Z,33.70
2018-06-15T18:30:29.160Z,34.20
2018-06-15T18:33:53.964Z,34.80
2018-06-15T18:37:18.614Z,35.20
2018-06-15T18:40:43.473Z,36.50
2018-06-15T18:44:08.500Z,37.30
2018-06-15T18:47:33.478Z,38.70
2018-06-15T18:50:58.451Z,39.80
2018-06-15T18:54:23.354Z,40.70
2018-06-15T18:57:48.196Z,41.50
2018-06-15T19:01:12.947Z,43.00
2018-06-15T19:04:37.744Z,43.40
2018-06-15T19:08:02.514Z,44.60
2018-06-15T19:11:27.249Z,44.70
2018-06-15T19:14:51.968Z,45.10
2018-06-15T19:18:16.805Z,45.50
2018-06-15T19:25:06.002Z,45.50
2018-06-15T19:28:30.730Z,46.70
2018-06-15T19:31:55.483Z,47.20
2018-06-15T19:35:20.128Z,47.60
2018-06-15T19:38:44.805Z,48.80
2018-06-15T19:42:09.449Z,50.00
2018-06-15T19:45:34.147Z,50.30
2018-06-15T19:48:58.895Z,51.10
2018-06-15T19:52:23.555Z,51.70
2018-06-15T19:55:48.254Z,53.10
2018-06-15T19:59:12.907Z,53.80
2018-06-15T20:02:37.533Z,55.50
2018-06-15T20:06:02.254Z,55.10
2018-06-15T20:09:26.921Z,56.20
2018-06-15T20:12:51.562Z,56.60
2018-06-15T20:16:16.852Z,57.50
2018-06-15T20:19:41.595Z,58.10
2018-06-15T20:23:06.379Z,59.50
2018-06-15T20:26:31.169Z,59.60
2018-06-15T20:33:20.240Z,59.90
2018-06-15T20:36:44.959Z,61.40
2018-06-15T20:43:33.993Z,63.20
2018-06-15T20:46:58.636Z,63.60
2018-06-15T20:50:23.320Z,64.00
2018-06-15T20:53:48.011Z,64.80
2018-06-15T20:57:12.724Z,66.40
2018-06-15T21:00:37.337Z,66.50
2018-06-15T21:04:01.983Z,67.00
2018-06-15T21:07:26.673Z,67.30
2018-06-15T21:10:51.321Z,67.70
2018-06-15T21:14:16.129Z,69.30
2018-06-15T21:17:40.795Z,68.80
2018-06-15T21:21:05.503Z,69.00
2018-06-15T21:27:54.726Z,70.00
2018-06-15T21:31:19.574Z,70.90
2018-06-15T21:34:44.331Z,71.60
2018-06-15T21:38:09.256Z,71.20
2018-06-15T21:41:33.957Z,71.30
2018-06-15T21:44:58.621Z,71.50
2018-06-15T21:48:23.283Z,71.80
2018-06-15T21:51:48.053Z,71.90
2018-06-15T21:55:12.764Z,71.70
2018-06-15T21:58:37.482Z,72.50
2018-06-15T22:02:02.260Z,71.00
2018-06-15T22:05:26.916Z,69.60
2018-06-15T22:12:16.032Z,71.30
2018-06-15T22:15:40.740Z,70.40
2018-06-15T22:19:05.566Z,70.30
2018-06-15T22:22:31.277Z,72.00
2018-06-15T22:25:56.009Z,71.50
2018-06-15T22:29:20.796Z,72.30
2018-06-15T22:32:45.450Z,72.00
2018-06-15T22:36:10.296Z,71.90
2018-06-15T22:39:34.986Z,71.90
2018-06-15T22:42:59.659Z,71.00
2018-06-15T22:46:24.356Z,71.60
2018-06-15T22:49:49.040Z,73.60
2018-06-15T22:53:13.705Z,73.20
2018-06-15T22:56:40.967Z,74.10
2018-06-15T23:00:06.152Z,73.00
2018-06-15T23:03:30.961Z,73.40
2018-06-15T23:06:55.607Z,74.00
2018-06-15T23:10:20.364Z,74.00
2018-06-15T23:13:45.104Z,74.30
2018-06-15T23:17:09.818Z,75.10
2018-06-15T23:20:34.468Z,75.50
2018-06-15T23:27:23.484Z,76.40
2018-06-15T23:30:48.263Z,77.10
2018-06-15T23:34:13.026Z,77.30
2018-06-15T23:37:37.705Z,77.20
2018-06-15T23:41:02.399Z,77.80
2018-06-15T23:47:51.368Z,78.00
2018-06-15T23:51:16.065Z,79.10
2018-06-15T23:54:40.739Z,78.70
2018-06-15T23:58:05.547Z,79.60
